sensor_id;sensor_type;location;lat;lon;timestamp;P1;durP1;ratioP1;P2;durP2;ratioP2
17761;SDS011;9005;48.838;10.112;2023-12-14T00:02:07;1.60;;;1.02;;
17761;SDS011;9005;48.838;10.112;2023-12-14T00:04:35;1.20;;;0.90;;
17761;SDS011;9005;48.838;10.112;2023-12-14T00:07:02;1.58;;;1.17;;
17761;SDS011;9005;48.838;10.112;2023-12-14T00:09:29;0.57;;;0.55;;
17761;SDS011;9005;48.838;10.112;2023-12-14T00:11:56;1.42;;;0.57;;
17761;SDS011;9005;48.838;10.112;2023-12-14T00:14:23;1.05;;;0.90;;
17761;SDS011;9005;48.838;10.112;2023-12-14T00:16:49;2.33;;;1.55;;
17761;SDS011;9005;48.838;10.112;2023-12-14T00:19:16;0.70;;;0.70;;
17761;SDS011;9005;48.838;10.112;2023-12-14T00:21:44;0.22;;;0.22;;
17761;SDS011;9005;48.838;10.112;2023-12-14T00:24:11;2.17;;;1.20;;
17761;SDS011;9005;48.838;10.112;2023-12-14T00:26:38;1.25;;;0.70;;
17761;SDS011;9005;48.838;10.112;2023-12-14T00:29:04;1.08;;;0.73;;
17761;SDS011;9005;48.838;10.112;2023-12-14T00:31:31;0.77;;;0.75;;
17761;SDS011;9005;48.838;10.112;2023-12-14T00:33:58;0.60;;;0.60;;
17761;SDS011;9005;48.838;10.112;2023-12-14T00:36:24;1.20;;;0.90;;
17761;SDS011;9005;48.838;10.112;2023-12-14T00:38:52;0.88;;;0.88;;
17761;SDS011;9005;48.838;10.112;2023-12-14T00:41:19;0.60;;;0.60;;
17761;SDS011;9005;48.838;10.112;2023-12-14T00:43:46;0.50;;;0.50;;
17761;SDS011;9005;48.838;10.112;2023-12-14T00:46:13;1.67;;;1.17;;
17761;SDS011;9005;48.838;10.112;2023-12-14T00:48:39;0.30;;;0.30;;
17761;SDS011;9005;48.838;10.112;2023-12-14T00:51:06;0.82;;;0.55;;
17761;SDS011;9005;48.838;10.112;2023-12-14T00:53:33;0.93;;;0.40;;
17761;SDS011;9005;48.838;10.112;2023-12-14T00:56:01;0.50;;;0.50;;
17761;SDS011;9005;48.838;10.112;2023-12-14T00:58:28;0.40;;;0.40;;
17761;SDS011;9005;48.838;10.112;2023-12-14T01:00:55;3.17;;;0.73;;
17761;SDS011;9005;48.838;10.112;2023-12-14T01:03:21;2.80;;;1.05;;
17761;SDS011;9005;48.838;10.112;2023-12-14T01:05:48;0.50;;;0.50;;
17761;SDS011;9005;48.838;10.112;2023-12-14T01:08:15;0.60;;;0.60;;
17761;SDS011;9005;48.838;10.112;2023-12-14T01:10:42;1.23;;;0.75;;
17761;SDS011;9005;48.838;10.112;2023-12-14T01:13:10;0.50;;;0.50;;
17761;SDS011;9005;48.838;10.112;2023-12-14T01:15:36;1.02;;;0.60;;
17761;SDS011;9005;48.838;10.112;2023-12-14T01:18:03;0.93;;;0.52;;
17761;SDS011;9005;48.838;10.112;2023-12-14T01:20:30;0.90;;;0.82;;
17761;SDS011;9005;48.838;10.112;2023-12-14T01:22:57;1.88;;;1.02;;
17761;SDS011;9005;48.838;10.112;2023-12-14T01:25:24;1.05;;;0.75;;
17761;SDS011;9005;48.838;10.112;2023-12-14T01:27:50;1.52;;;1.33;;
17761;SDS011;9005;48.838;10.112;2023-12-14T01:30:18;1.38;;;0.90;;
17761;SDS011;9005;48.838;10.112;2023-12-14T01:32:45;0.80;;;0.80;;
17761;SDS011;9005;48.838;10.112;2023-12-14T01:35:12;0.68;;;0.68;;
17761;SDS011;9005;48.838;10.112;2023-12-14T01:37:39;1.27;;;1.13;;
17761;SDS011;9005;48.838;10.112;2023-12-14T01:40:06;1.80;;;0.77;;
17761;SDS011;9005;48.838;10.112;2023-12-14T01:42:33;0.60;;;0.60;;
17761;SDS011;9005;48.838;10.112;2023-12-14T01:45:00;1.02;;;0.93;;
17761;SDS011;9005;48.838;10.112;2023-12-14T01:47:28;1.13;;;0.95;;
17761;SDS011;9005;48.838;10.112;2023-12-14T01:49:55;0.68;;;0.60;;
17761;SDS011;9005;48.838;10.112;2023-12-14T01:52:21;2.58;;;1.08;;
17761;SDS011;9005;48.838;10.112;2023-12-14T01:54:48;1.48;;;1.20;;
17761;SDS011;9005;48.838;10.112;2023-12-14T01:57:15;2.17;;;1.05;;
17761;SDS011;9005;48.838;10.112;2023-12-14T01:59:41;2.70;;;1.10;;
17761;SDS011;9005;48.838;10.112;2023-12-14T02:02:08;0.90;;;0.77;;
17761;SDS011;9005;48.838;10.112;2023-12-14T02:04:36;1.60;;;1.00;;
17761;SDS011;9005;48.838;10.112;2023-12-14T02:07:03;1.13;;;1.00;;
17761;SDS011;9005;48.838;10.112;2023-12-14T02:09:30;1.98;;;0.90;;
17761;SDS011;9005;48.838;10.112;2023-12-14T02:11:56;0.85;;;0.80;;
17761;SDS011;9005;48.838;10.112;2023-12-14T02:14:23;2.03;;;1.08;;
17761;SDS011;9005;48.838;10.112;2023-12-14T02:16:50;1.27;;;1.13;;
17761;SDS011;9005;48.838;10.112;2023-12-14T02:19:16;1.33;;;1.23;;
17761;SDS011;9005;48.838;10.112;2023-12-14T02:21:44;3.17;;;1.05;;
17761;SDS011;9005;48.838;10.112;2023-12-14T02:24:12;2.17;;;1.33;;
17761;SDS011;9005;48.838;10.112;2023-12-14T02:26:39;1.35;;;0.98;;
17761;SDS011;9005;48.838;10.112;2023-12-14T02:29:06;1.45;;;1.00;;
17761;SDS011;9005;48.838;10.112;2023-12-14T02:31:33;1.50;;;0.93;;
17761;SDS011;9005;48.838;10.112;2023-12-14T02:33:59;1.83;;;1.38;;
17761;SDS011;9005;48.838;10.112;2023-12-14T02:36:26;1.20;;;1.10;;
17761;SDS011;9005;48.838;10.112;2023-12-14T02:38:53;1.55;;;0.70;;
17761;SDS011;9005;48.838;10.112;2023-12-14T02:41:21;1.70;;;1.00;;
17761;SDS011;9005;48.838;10.112;2023-12-14T02:43:47;0.95;;;0.88;;
17761;SDS011;9005;48.838;10.112;2023-12-14T02:46:14;0.85;;;0.68;;
17761;SDS011;9005;48.838;10.112;2023-12-14T02:48:41;1.13;;;1.08;;
17761;SDS011;9005;48.838;10.112;2023-12-14T02:51:11;1.63;;;1.10;;
17761;SDS011;9005;48.838;10.112;2023-12-14T02:53:38;2.83;;;1.10;;
17761;SDS011;9005;48.838;10.112;2023-12-14T02:56:06;2.08;;;1.10;;
17761;SDS011;9005;48.838;10.112;2023-12-14T02:58:34;1.90;;;1.23;;
17761;SDS011;9005;48.838;10.112;2023-12-14T03:01:01;2.75;;;1.40;;
17761;SDS011;9005;48.838;10.112;2023-12-14T03:03:28;1.70;;;1.10;;
17761;SDS011;9005;48.838;10.112;2023-12-14T03:05:55;1.85;;;0.98;;
17761;SDS011;9005;48.838;10.112;2023-12-14T03:08:22;1.33;;;0.80;;
17761;SDS011;9005;48.838;10.112;2023-12-14T03:10:48;1.35;;;0.98;;
17761;SDS011;9005;48.838;10.112;2023-12-14T03:13:15;1.63;;;0.93;;
17761;SDS011;9005;48.838;10.112;2023-12-14T03:15:43;1.15;;;1.02;;
17761;SDS011;9005;48.838;10.112;2023-12-14T03:18:11;1.60;;;1.35;;
17761;SDS011;9005;48.838;10.112;2023-12-14T03:20:38;1.63;;;1.50;;
17761;SDS011;9005;48.838;10.112;2023-12-14T03:23:05;1.33;;;1.23;;
17761;SDS011;9005;48.838;10.112;2023-12-14T03:25:31;1.60;;;1.20;;
17761;SDS011;9005;48.838;10.112;2023-12-14T03:27:58;1.20;;;1.10;;
17761;SDS011;9005;48.838;10.112;2023-12-14T03:30:25;1.17;;;1.08;;
17761;SDS011;9005;48.838;10.112;2023-12-14T03:32:53;2.35;;;1.10;;
17761;SDS011;9005;48.838;10.112;2023-12-14T03:35:20;1.17;;;1.00;;
17761;SDS011;9005;48.838;10.112;2023-12-14T03:37:47;1.10;;;1.00;;
17761;SDS011;9005;48.838;10.112;2023-12-14T03:40:14;1.13;;;1.00;;
17761;SDS011;9005;48.838;10.112;2023-12-14T03:42:40;1.50;;;1.10;;
17761;SDS011;9005;48.838;10.112;2023-12-14T03:45:07;1.25;;;0.98;;
17761;SDS011;9005;48.838;10.112;2023-12-14T03:47:35;1.30;;;1.17;;
17761;SDS011;9005;48.838;10.112;2023-12-14T03:50:04;3.35;;;1.08;;
17761;SDS011;9005;48.838;10.112;2023-12-14T03:52:31;1.10;;;1.00;;
17761;SDS011;9005;48.838;10.112;2023-12-14T03:54:58;3.25;;;1.48;;
17761;SDS011;9005;48.838;10.112;2023-12-14T03:57:25;1.38;;;1.20;;
17761;SDS011;9005;48.838;10.112;2023-12-14T03:59:52;2.58;;;1.45;;
17761;SDS011;9005;48.838;10.112;2023-12-14T04:02:18;1.23;;;1.00;;
17761;SDS011;9005;48.838;10.112;2023-12-14T04:04:45;1.33;;;1.23;;
17761;SDS011;9005;48.838;10.112;2023-12-14T04:07:13;1.30;;;1.00;;
17761;SDS011;9005;48.838;10.112;2023-12-14T04:09:40;2.28;;;1.10;;
17761;SDS011;9005;48.838;10.112;2023-12-14T04:12:07;2.40;;;1.58;;
17761;SDS011;9005;48.838;10.112;2023-12-14T04:14:33;1.60;;;1.38;;
17761;SDS011;9005;48.838;10.112;2023-12-14T04:17:00;1.90;;;0.95;;
17761;SDS011;9005;48.838;10.112;2023-12-14T04:19:27;2.20;;;1.10;;
17761;SDS011;9005;48.838;10.112;2023-12-14T04:21:54;1.25;;;1.13;;
17761;SDS011;9005;48.838;10.112;2023-12-14T04:24:22;3.17;;;1.30;;
17761;SDS011;9005;48.838;10.112;2023-12-14T04:26:48;1.50;;;1.15;;
17761;SDS011;9005;48.838;10.112;2023-12-14T04:29:15;1.00;;;1.00;;
17761;SDS011;9005;48.838;10.112;2023-12-14T04:31:42;1.80;;;1.50;;
17761;SDS011;9005;48.838;10.112;2023-12-14T04:34:08;1.15;;;1.05;;
17761;SDS011;9005;48.838;10.112;2023-12-14T04:36:40;1.45;;;1.20;;
17761;SDS011;9005;48.838;10.112;2023-12-14T04:39:06;1.17;;;1.08;;
17761;SDS011;9005;48.838;10.112;2023-12-14T04:41:35;1.45;;;0.90;;
17761;SDS011;9005;48.838;10.112;2023-12-14T04:44:02;1.45;;;1.15;;
17761;SDS011;9005;48.838;10.112;2023-12-14T04:46:29;0.93;;;0.93;;
17761;SDS011;9005;48.838;10.112;2023-12-14T04:48:55;1.98;;;1.33;;
17761;SDS011;9005;48.838;10.112;2023-12-14T04:51:22;1.17;;;1.08;;
17761;SDS011;9005;48.838;10.112;2023-12-14T04:53:49;1.55;;;1.15;;
17761;SDS011;9005;48.838;10.112;2023-12-14T04:56:15;1.92;;;1.58;;
17761;SDS011;9005;48.838;10.112;2023-12-14T04:58:43;1.10;;;1.00;;
17761;SDS011;9005;48.838;10.112;2023-12-14T05:01:11;1.40;;;1.30;;
17761;SDS011;9005;48.838;10.112;2023-12-14T05:03:37;1.33;;;1.20;;
17761;SDS011;9005;48.838;10.112;2023-12-14T05:06:04;1.60;;;1.50;;
17761;SDS011;9005;48.838;10.112;2023-12-14T05:08:32;2.92;;;2.20;;
17761;SDS011;9005;48.838;10.112;2023-12-14T05:10:58;2.08;;;1.73;;
17761;SDS011;9005;48.838;10.112;2023-12-14T05:13:25;1.63;;;1.40;;
17761;SDS011;9005;48.838;10.112;2023-12-14T05:15:53;1.90;;;1.52;;
17761;SDS011;9005;48.838;10.112;2023-12-14T05:18:20;1.67;;;1.40;;
17761;SDS011;9005;48.838;10.112;2023-12-14T05:20:47;2.08;;;1.77;;
17761;SDS011;9005;48.838;10.112;2023-12-14T05:23:13;2.50;;;1.60;;
17761;SDS011;9005;48.838;10.112;2023-12-14T05:25:40;2.83;;;1.60;;
17761;SDS011;9005;48.838;10.112;2023-12-14T05:28:07;1.52;;;1.20;;
17761;SDS011;9005;48.838;10.112;2023-12-14T05:30:34;1.98;;;1.50;;
17761;SDS011;9005;48.838;10.112;2023-12-14T05:33:02;1.33;;;1.23;;
17761;SDS011;9005;48.838;10.112;2023-12-14T05:35:29;1.92;;;1.40;;
17761;SDS011;9005;48.838;10.112;2023-12-14T05:37:55;2.97;;;1.42;;
17761;SDS011;9005;48.838;10.112;2023-12-14T05:40:22;1.98;;;1.55;;
17761;SDS011;9005;48.838;10.112;2023-12-14T05:42:49;1.63;;;1.48;;
17761;SDS011;9005;48.838;10.112;2023-12-14T05:45:16;1.60;;;1.50;;
17761;SDS011;9005;48.838;10.112;2023-12-14T05:47:43;2.20;;;1.92;;
17761;SDS011;9005;48.838;10.112;2023-12-14T05:50:11;1.88;;;1.75;;
17761;SDS011;9005;48.838;10.112;2023-12-14T05:52:38;1.75;;;1.65;;
17761;SDS011;9005;48.838;10.112;2023-12-14T05:55:07;2.22;;;1.70;;
17761;SDS011;9005;48.838;10.112;2023-12-14T05:57:35;2.13;;;1.60;;
17761;SDS011;9005;48.838;10.112;2023-12-14T06:00:02;2.50;;;1.70;;
17761;SDS011;9005;48.838;10.112;2023-12-14T06:02:30;3.35;;;1.80;;
17761;SDS011;9005;48.838;10.112;2023-12-14T06:04:57;2.95;;;1.80;;
17761;SDS011;9005;48.838;10.112;2023-12-14T06:07:25;5.38;;;2.13;;
17761;SDS011;9005;48.838;10.112;2023-12-14T06:09:52;1.75;;;1.52;;
17761;SDS011;9005;48.838;10.112;2023-12-14T06:12:19;1.70;;;1.42;;
17761;SDS011;9005;48.838;10.112;2023-12-14T06:14:46;1.77;;;1.38;;
17761;SDS011;9005;48.838;10.112;2023-12-14T06:17:12;2.25;;;1.40;;
17761;SDS011;9005;48.838;10.112;2023-12-14T06:19:39;2.22;;;2.03;;
17761;SDS011;9005;48.838;10.112;2023-12-14T06:22:06;1.90;;;1.70;;
17761;SDS011;9005;48.838;10.112;2023-12-14T06:24:34;1.65;;;1.50;;
17761;SDS011;9005;48.838;10.112;2023-12-14T06:27:00;1.60;;;1.50;;
17761;SDS011;9005;48.838;10.112;2023-12-14T06:29:27;1.67;;;1.50;;
17761;SDS011;9005;48.838;10.112;2023-12-14T06:31:54;5.00;;;3.40;;
17761;SDS011;9005;48.838;10.112;2023-12-14T06:34:21;2.30;;;2.10;;
17761;SDS011;9005;48.838;10.112;2023-12-14T06:36:47;3.13;;;1.90;;
17761;SDS011;9005;48.838;10.112;2023-12-14T06:39:14;2.33;;;1.88;;
17761;SDS011;9005;48.838;10.112;2023-12-14T06:41:42;2.13;;;1.92;;
17761;SDS011;9005;48.838;10.112;2023-12-14T06:44:09;3.42;;;1.80;;
17761;SDS011;9005;48.838;10.112;2023-12-14T06:46:36;4.43;;;1.85;;
17761;SDS011;9005;48.838;10.112;2023-12-14T06:49:02;2.90;;;2.00;;
17761;SDS011;9005;48.838;10.112;2023-12-14T06:51:29;2.63;;;1.75;;
17761;SDS011;9005;48.838;10.112;2023-12-14T06:53:56;2.95;;;2.13;;
17761;SDS011;9005;48.838;10.112;2023-12-14T06:56:22;2.75;;;1.98;;
17761;SDS011;9005;48.838;10.112;2023-12-14T06:58:50;6.25;;;2.30;;
17761;SDS011;9005;48.838;10.112;2023-12-14T07:01:17;2.03;;;1.90;;
17761;SDS011;9005;48.838;10.112;2023-12-14T07:03:44;2.03;;;1.83;;
17761;SDS011;9005;48.838;10.112;2023-12-14T07:06:11;2.25;;;2.00;;
17761;SDS011;9005;48.838;10.112;2023-12-14T07:08:39;2.17;;;1.85;;
17761;SDS011;9005;48.838;10.112;2023-12-14T07:11:06;1.92;;;1.80;;
17761;SDS011;9005;48.838;10.112;2023-12-14T07:13:33;2.55;;;2.05;;
17761;SDS011;9005;48.838;10.112;2023-12-14T07:16:02;2.72;;;2.00;;
17761;SDS011;9005;48.838;10.112;2023-12-14T07:18:30;2.53;;;2.00;;
17761;SDS011;9005;48.838;10.112;2023-12-14T07:20:56;2.20;;;2.00;;
17761;SDS011;9005;48.838;10.112;2023-12-14T07:23:23;2.15;;;1.95;;
17761;SDS011;9005;48.838;10.112;2023-12-14T07:25:50;2.35;;;2.15;;
17761;SDS011;9005;48.838;10.112;2023-12-14T07:28:16;2.00;;;1.88;;
17761;SDS011;9005;48.838;10.112;2023-12-14T07:30:44;3.17;;;2.05;;
17761;SDS011;9005;48.838;10.112;2023-12-14T07:33:12;2.90;;;2.60;;
17761;SDS011;9005;48.838;10.112;2023-12-14T07:35:39;3.03;;;2.70;;
17761;SDS011;9005;48.838;10.112;2023-12-14T07:38:06;3.63;;;2.92;;
17761;SDS011;9005;48.838;10.112;2023-12-14T07:40:34;3.10;;;2.80;;
17761;SDS011;9005;48.838;10.112;2023-12-14T07:43:01;3.85;;;2.60;;
17761;SDS011;9005;48.838;10.112;2023-12-14T07:45:28;2.40;;;2.20;;
17761;SDS011;9005;48.838;10.112;2023-12-14T07:47:54;3.33;;;2.50;;
17761;SDS011;9005;48.838;10.112;2023-12-14T07:50:23;2.83;;;2.63;;
17761;SDS011;9005;48.838;10.112;2023-12-14T07:52:49;12.80;;;4.88;;
17761;SDS011;9005;48.838;10.112;2023-12-14T07:55:16;2.92;;;2.40;;
17761;SDS011;9005;48.838;10.112;2023-12-14T07:57:43;2.83;;;2.60;;
17761;SDS011;9005;48.838;10.112;2023-12-14T08:00:10;3.65;;;2.70;;
17761;SDS011;9005;48.838;10.112;2023-12-14T08:02:38;3.55;;;2.78;;
17761;SDS011;9005;48.838;10.112;2023-12-14T08:05:05;2.72;;;2.40;;
17761;SDS011;9005;48.838;10.112;2023-12-14T08:07:33;3.35;;;2.75;;
17761;SDS011;9005;48.838;10.112;2023-12-14T08:10:00;2.65;;;2.45;;
17761;SDS011;9005;48.838;10.112;2023-12-14T08:12:27;3.13;;;2.88;;
17761;SDS011;9005;48.838;10.112;2023-12-14T08:14:53;2.83;;;2.63;;
17761;SDS011;9005;48.838;10.112;2023-12-14T08:17:20;2.60;;;2.40;;
17761;SDS011;9005;48.838;10.112;2023-12-14T08:19:47;3.95;;;2.72;;
17761;SDS011;9005;48.838;10.112;2023-12-14T08:22:14;2.95;;;2.40;;
17761;SDS011;9005;48.838;10.112;2023-12-14T08:24:42;3.40;;;3.10;;
17761;SDS011;9005;48.838;10.112;2023-12-14T08:27:08;4.07;;;3.17;;
17761;SDS011;9005;48.838;10.112;2023-12-14T08:29:35;3.78;;;2.70;;
17761;SDS011;9005;48.838;10.112;2023-12-14T08:32:02;2.95;;;2.65;;
17761;SDS011;9005;48.838;10.112;2023-12-14T08:34:29;3.72;;;3.33;;
17761;SDS011;9005;48.838;10.112;2023-12-14T08:36:56;3.28;;;2.95;;
17761;SDS011;9005;48.838;10.112;2023-12-14T08:39:23;3.13;;;2.83;;
17761;SDS011;9005;48.838;10.112;2023-12-14T08:41:51;3.20;;;2.90;;
17761;SDS011;9005;48.838;10.112;2023-12-14T08:44:18;4.78;;;3.15;;
17761;SDS011;9005;48.838;10.112;2023-12-14T08:46:45;3.35;;;2.63;;
17761;SDS011;9005;48.838;10.112;2023-12-14T08:49:12;3.60;;;2.92;;
17761;SDS011;9005;48.838;10.112;2023-12-14T08:51:40;3.13;;;2.75;;
17761;SDS011;9005;48.838;10.112;2023-12-14T08:54:07;3.28;;;3.00;;
17761;SDS011;9005;48.838;10.112;2023-12-14T08:56:34;2.85;;;2.65;;
17761;SDS011;9005;48.838;10.112;2023-12-14T08:59:02;3.13;;;2.92;;
17761;SDS011;9005;48.838;10.112;2023-12-14T09:01:29;3.10;;;2.80;;
17761;SDS011;9005;48.838;10.112;2023-12-14T09:03:56;3.35;;;3.05;;
17761;SDS011;9005;48.838;10.112;2023-12-14T09:06:23;3.28;;;3.05;;
17761;SDS011;9005;48.838;10.112;2023-12-14T09:08:49;3.38;;;3.08;;
17761;SDS011;9005;48.838;10.112;2023-12-14T09:11:16;2.75;;;2.55;;
17761;SDS011;9005;48.838;10.112;2023-12-14T09:13:43;4.25;;;3.17;;
17761;SDS011;9005;48.838;10.112;2023-12-14T09:16:12;3.83;;;2.85;;
17761;SDS011;9005;48.838;10.112;2023-12-14T09:18:38;3.05;;;2.75;;
17761;SDS011;9005;48.838;10.112;2023-12-14T09:21:05;3.83;;;3.20;;
17761;SDS011;9005;48.838;10.112;2023-12-14T09:23:32;3.58;;;3.25;;
17761;SDS011;9005;48.838;10.112;2023-12-14T09:25:59;4.50;;;2.92;;
17761;SDS011;9005;48.838;10.112;2023-12-14T09:28:25;3.45;;;3.15;;
17761;SDS011;9005;48.838;10.112;2023-12-14T09:30:52;4.32;;;3.10;;
17761;SDS011;9005;48.838;10.112;2023-12-14T09:33:20;3.13;;;2.78;;
17761;SDS011;9005;48.838;10.112;2023-12-14T09:35:47;4.00;;;3.50;;
17761;SDS011;9005;48.838;10.112;2023-12-14T09:38:13;2.80;;;2.60;;
17761;SDS011;9005;48.838;10.112;2023-12-14T09:40:42;4.78;;;2.85;;
17761;SDS011;9005;48.838;10.112;2023-12-14T09:43:10;3.50;;;2.80;;
17761;SDS011;9005;48.838;10.112;2023-12-14T09:45:39;3.25;;;2.95;;
17761;SDS011;9005;48.838;10.112;2023-12-14T09:48:10;2.65;;;2.45;;
17761;SDS011;9005;48.838;10.112;2023-12-14T09:50:39;4.43;;;3.00;;
17761;SDS011;9005;48.838;10.112;2023-12-14T09:53:06;3.13;;;2.60;;
17761;SDS011;9005;48.838;10.112;2023-12-14T09:55:33;2.60;;;2.40;;
17761;SDS011;9005;48.838;10.112;2023-12-14T09:58:00;3.15;;;2.90;;
17761;SDS011;9005;48.838;10.112;2023-12-14T10:00:34;3.55;;;2.80;;
17761;SDS011;9005;48.838;10.112;2023-12-14T10:03:17;2.70;;;2.50;;
17761;SDS011;9005;48.838;10.112;2023-12-14T10:05:49;3.20;;;2.65;;
17761;SDS011;9005;48.838;10.112;2023-12-14T10:08:16;3.65;;;2.60;;
17761;SDS011;9005;48.838;10.112;2023-12-14T10:10:43;3.03;;;2.53;;
17761;SDS011;9005;48.838;10.112;2023-12-14T10:13:10;4.57;;;2.85;;
17761;SDS011;9005;48.838;10.112;2023-12-14T10:15:40;2.58;;;2.38;;
17761;SDS011;9005;48.838;10.112;2023-12-14T10:18:08;2.83;;;2.55;;
17761;SDS011;9005;48.838;10.112;2023-12-14T10:20:34;4.13;;;2.83;;
17761;SDS011;9005;48.838;10.112;2023-12-14T10:23:03;4.10;;;3.20;;
17761;SDS011;9005;48.838;10.112;2023-12-14T10:27:57;3.55;;;2.92;;
17761;SDS011;9005;48.838;10.112;2023-12-14T10:30:25;3.15;;;2.85;;
17761;SDS011;9005;48.838;10.112;2023-12-14T10:32:52;4.25;;;2.70;;
17761;SDS011;9005;48.838;10.112;2023-12-14T10:35:20;2.70;;;2.50;;
17761;SDS011;9005;48.838;10.112;2023-12-14T10:37:48;2.80;;;2.53;;
17761;SDS011;9005;48.838;10.112;2023-12-14T10:40:18;3.00;;;2.70;;
17761;SDS011;9005;48.838;10.112;2023-12-14T10:42:46;3.08;;;2.70;;
17761;SDS011;9005;48.838;10.112;2023-12-14T10:45:15;2.83;;;2.50;;
17761;SDS011;9005;48.838;10.112;2023-12-14T10:47:45;3.13;;;2.85;;
17761;SDS011;9005;48.838;10.112;2023-12-14T10:50:14;5.05;;;3.20;;
17761;SDS011;9005;48.838;10.112;2023-12-14T10:52:41;3.25;;;2.53;;
17761;SDS011;9005;48.838;10.112;2023-12-14T10:55:12;2.95;;;2.65;;
17761;SDS011;9005;48.838;10.112;2023-12-14T10:57:48;3.53;;;3.03;;
17761;SDS011;9005;48.838;10.112;2023-12-14T11:00:17;3.20;;;2.70;;
17761;SDS011;9005;48.838;10.112;2023-12-14T11:02:45;2.97;;;2.67;;
17761;SDS011;9005;48.838;10.112;2023-12-14T11:05:13;3.40;;;3.05;;
17761;SDS011;9005;48.838;10.112;2023-12-14T11:07:47;5.00;;;2.88;;
17761;SDS011;9005;48.838;10.112;2023-12-14T11:10:20;2.88;;;2.50;;
17761;SDS011;9005;48.838;10.112;2023-12-14T11:12:52;2.97;;;2.63;;
17761;SDS011;9005;48.838;10.112;2023-12-14T11:15:23;2.60;;;2.40;;
17761;SDS011;9005;48.838;10.112;2023-12-14T11:20:54;3.05;;;2.60;;
17761;SDS011;9005;48.838;10.112;2023-12-14T11:23:32;4.53;;;2.80;;
17761;SDS011;9005;48.838;10.112;2023-12-14T11:26:02;3.85;;;2.92;;
17761;SDS011;9005;48.838;10.112;2023-12-14T11:28:32;3.50;;;2.67;;
17761;SDS011;9005;48.838;10.112;2023-12-14T11:31:00;2.95;;;2.65;;
17761;SDS011;9005;48.838;10.112;2023-12-14T11:33:27;3.97;;;2.85;;
17761;SDS011;9005;48.838;10.112;2023-12-14T11:35:55;2.95;;;2.65;;
17761;SDS011;9005;48.838;10.112;2023-12-14T11:38:22;3.22;;;2.60;;
17761;SDS011;9005;48.838;10.112;2023-12-14T11:40:50;3.15;;;2.85;;
17761;SDS011;9005;48.838;10.112;2023-12-14T11:43:17;7.18;;;2.78;;
17761;SDS011;9005;48.838;10.112;2023-12-14T11:45:47;4.78;;;2.72;;
17761;SDS011;9005;48.838;10.112;2023-12-14T11:48:14;3.13;;;2.83;;
17761;SDS011;9005;48.838;10.112;2023-12-14T11:50:41;3.08;;;2.75;;
17761;SDS011;9005;48.838;10.112;2023-12-14T11:53:09;2.85;;;2.40;;
17761;SDS011;9005;48.838;10.112;2023-12-14T11:55:37;3.05;;;2.45;;
17761;SDS011;9005;48.838;10.112;2023-12-14T11:58:05;3.17;;;2.42;;
17761;SDS011;9005;48.838;10.112;2023-12-14T12:00:33;3.15;;;2.30;;
17761;SDS011;9005;48.838;10.112;2023-12-14T12:03:10;2.80;;;2.53;;
17761;SDS011;9005;48.838;10.112;2023-12-14T12:05:39;2.33;;;2.13;;
17761;SDS011;9005;48.838;10.112;2023-12-14T12:08:06;4.28;;;2.63;;
17761;SDS011;9005;48.838;10.112;2023-12-14T12:10:34;2.30;;;2.10;;
17761;SDS011;9005;48.838;10.112;2023-12-14T12:13:02;4.78;;;2.50;;
17761;SDS011;9005;48.838;10.112;2023-12-14T12:15:30;3.13;;;2.50;;
17761;SDS011;9005;48.838;10.112;2023-12-14T12:17:58;2.65;;;2.42;;
17761;SDS011;9005;48.838;10.112;2023-12-14T12:20:26;3.30;;;2.08;;
17761;SDS011;9005;48.838;10.112;2023-12-14T12:22:53;2.60;;;1.73;;
17761;SDS011;9005;48.838;10.112;2023-12-14T12:25:20;3.92;;;2.55;;
17761;SDS011;9005;48.838;10.112;2023-12-14T12:27:47;2.60;;;2.08;;
17761;SDS011;9005;48.838;10.112;2023-12-14T12:30:14;2.25;;;1.67;;
17761;SDS011;9005;48.838;10.112;2023-12-14T12:32:41;2.25;;;1.70;;
17761;SDS011;9005;48.838;10.112;2023-12-14T12:35:08;2.78;;;1.90;;
17761;SDS011;9005;48.838;10.112;2023-12-14T12:37:36;2.63;;;1.75;;
17761;SDS011;9005;48.838;10.112;2023-12-14T12:40:03;2.63;;;1.98;;
17761;SDS011;9005;48.838;10.112;2023-12-14T12:42:31;2.75;;;2.17;;
17761;SDS011;9005;48.838;10.112;2023-12-14T12:44:58;2.30;;;2.10;;
17761;SDS011;9005;48.838;10.112;2023-12-14T12:47:25;2.63;;;2.42;;
17761;SDS011;9005;48.838;10.112;2023-12-14T12:49:52;2.35;;;2.15;;
17761;SDS011;9005;48.838;10.112;2023-12-14T12:52:19;2.53;;;1.95;;
17761;SDS011;9005;48.838;10.112;2023-12-14T12:54:47;4.65;;;2.60;;
17761;SDS011;9005;48.838;10.112;2023-12-14T12:57:14;3.25;;;2.03;;
17761;SDS011;9005;48.838;10.112;2023-12-14T12:59:40;3.75;;;2.15;;
17761;SDS011;9005;48.838;10.112;2023-12-14T13:02:07;3.85;;;2.55;;
17761;SDS011;9005;48.838;10.112;2023-12-14T13:04:34;3.47;;;2.58;;
17761;SDS011;9005;48.838;10.112;2023-12-14T13:07:02;2.65;;;1.80;;
17761;SDS011;9005;48.838;10.112;2023-12-14T13:09:29;2.35;;;2.00;;
17761;SDS011;9005;48.838;10.112;2023-12-14T13:11:58;3.03;;;2.58;;
17761;SDS011;9005;48.838;10.112;2023-12-14T13:14:25;3.45;;;3.15;;
17761;SDS011;9005;48.838;10.112;2023-12-14T13:16:52;3.22;;;2.45;;
17761;SDS011;9005;48.838;10.112;2023-12-14T13:19:18;5.75;;;2.83;;
17761;SDS011;9005;48.838;10.112;2023-12-14T13:21:45;4.53;;;2.55;;
17761;SDS011;9005;48.838;10.112;2023-12-14T13:24:12;2.22;;;2.03;;
17761;SDS011;9005;48.838;10.112;2023-12-14T13:26:39;2.78;;;2.50;;
17761;SDS011;9005;48.838;10.112;2023-12-14T13:29:07;2.90;;;2.40;;
17761;SDS011;9005;48.838;10.112;2023-12-14T13:31:33;4.03;;;2.20;;
17761;SDS011;9005;48.838;10.112;2023-12-14T13:34:00;3.15;;;2.22;;
17761;SDS011;9005;48.838;10.112;2023-12-14T13:36:28;2.95;;;2.42;;
17761;SDS011;9005;48.838;10.112;2023-12-14T13:38:55;3.53;;;2.63;;
17761;SDS011;9005;48.838;10.112;2023-12-14T13:41:22;4.53;;;3.10;;
17761;SDS011;9005;48.838;10.112;2023-12-14T13:43:49;4.85;;;2.47;;
17761;SDS011;9005;48.838;10.112;2023-12-14T13:46:18;4.00;;;2.63;;
17761;SDS011;9005;48.838;10.112;2023-12-14T13:48:44;5.43;;;2.88;;
17761;SDS011;9005;48.838;10.112;2023-12-14T13:51:11;4.82;;;3.03;;
17761;SDS011;9005;48.838;10.112;2023-12-14T13:53:38;3.63;;;2.90;;
17761;SDS011;9005;48.838;10.112;2023-12-14T13:56:05;4.07;;;2.75;;
17761;SDS011;9005;48.838;10.112;2023-12-14T13:58:32;3.47;;;2.60;;
17761;SDS011;9005;48.838;10.112;2023-12-14T14:01:02;3.60;;;2.50;;
17761;SDS011;9005;48.838;10.112;2023-12-14T14:03:32;2.60;;;2.08;;
17761;SDS011;9005;48.838;10.112;2023-12-14T14:05:58;3.33;;;2.45;;
17761;SDS011;9005;48.838;10.112;2023-12-14T14:08:25;2.70;;;2.50;;
17761;SDS011;9005;48.838;10.112;2023-12-14T14:10:52;3.45;;;2.58;;
17761;SDS011;9005;48.838;10.112;2023-12-14T14:13:18;2.50;;;2.30;;
17761;SDS011;9005;48.838;10.112;2023-12-14T14:15:46;3.10;;;2.80;;
17761;SDS011;9005;48.838;10.112;2023-12-14T14:18:13;5.68;;;2.78;;
17761;SDS011;9005;48.838;10.112;2023-12-14T14:20:41;4.03;;;2.83;;
17761;SDS011;9005;48.838;10.112;2023-12-14T14:23:08;2.92;;;2.58;;
17761;SDS011;9005;48.838;10.112;2023-12-14T14:25:35;3.08;;;2.72;;
17761;SDS011;9005;48.838;10.112;2023-12-14T14:28:02;3.22;;;2.38;;
17761;SDS011;9005;48.838;10.112;2023-12-14T14:30:29;3.58;;;2.63;;
17761;SDS011;9005;48.838;10.112;2023-12-14T14:32:55;3.28;;;2.65;;
17761;SDS011;9005;48.838;10.112;2023-12-14T14:35:22;3.05;;;2.72;;
17761;SDS011;9005;48.838;10.112;2023-12-14T14:37:50;4.00;;;2.97;;
17761;SDS011;9005;48.838;10.112;2023-12-14T14:40:17;3.53;;;3.10;;
17761;SDS011;9005;48.838;10.112;2023-12-14T14:42:44;3.20;;;2.90;;
17761;SDS011;9005;48.838;10.112;2023-12-14T14:45:11;3.47;;;2.40;;
17761;SDS011;9005;48.838;10.112;2023-12-14T14:47:39;2.65;;;2.45;;
17761;SDS011;9005;48.838;10.112;2023-12-14T14:50:07;3.67;;;2.53;;
17761;SDS011;9005;48.838;10.112;2023-12-14T14:52:34;3.40;;;2.90;;
17761;SDS011;9005;48.838;10.112;2023-12-14T14:55:02;3.90;;;3.22;;